KMHV/MHV METAR and TAF weather

Enter ICAO airport designator
Station Type Date Time Source
KMHV METAR 2022/06/27 18:40 UTC NOAA

KMHV 271840Z AUTO VRB06KT 10SM CLR 36/01 A3012 RMK A01


Station Type Date Time Source
KMHV Decoded METAR 2022/06/27 18:40 UTC NOAA

Mojave, CA, United States (KMHV) 35-04N 118-09W
Jun 27, 2022 - 02:40 PM EDT / 2022.06.27 1840 UTC
Wind: Variable at 7 MPH (6 KT):0
Visibility: 10 mile(s):0
Sky conditions: clear
Temperature: 96 F (36 C)
Dew Point: 33 F (1 C)
Relative Humidity: 11%
Pressure (altimeter): 30.12 in. Hg (1019 hPa)
ob: KMHV 271840Z AUTO VRB06KT 10SM CLR 36/01 A3012 RMK A01
cycle: 18

Station Type Date Time Source
KMHV TAF UTC NOAA

Error!

Example: see airport list